Meteorología – Condiciones actuales

Viento: 4kts / 318° Pista Recomendada: 24
Componente de viento cruzado: 4.2kts
Temperatura: 5°C / Punto de Rocío: 3°C
QNH LELC: 1032 / Presión atmosf. LELG: 1028.11mbar
Condición CTR LELC: VFR
Altitud de Densidad: -2041'AMSL / Isocero: 2210'AMSL
Orto: 08:19LT / Ocaso: 18:07LT
METAR LELC: LELC 180200Z AUTO 29003KT 9000 NCD 03/02 Q1032
Fuente: NOAA
Datos completos de la estación meteorológica en Weather Underground
UTC time: